createdAt,value
2022-08-30T00:00:13.039Z,21.53
2022-08-30T00:03:07.346Z,21.53
2022-08-30T00:05:36.176Z,21.51
2022-08-30T00:08:04.449Z,21.52
2022-08-30T00:10:33.325Z,21.49
2022-08-30T00:13:02.595Z,21.46
2022-08-30T00:15:30.681Z,21.47
2022-08-30T00:17:59.061Z,21.54
2022-08-30T00:20:32.350Z,21.56
2022-08-30T00:23:00.718Z,21.61
2022-08-30T00:25:29.352Z,21.51
2022-08-30T00:27:57.140Z,21.43
2022-08-30T00:30:25.076Z,21.32
2022-08-30T00:32:54.277Z,21.25
2022-08-30T00:35:23.061Z,21.17
2022-08-30T00:37:51.498Z,21.14
2022-08-30T00:40:27.160Z,21.13
2022-08-30T00:43:00.021Z,21.20
2022-08-30T00:45:37.228Z,21.19
2022-08-30T00:48:08.825Z,21.20
2022-08-30T00:50:44.883Z,21.28
2022-08-30T00:53:20.051Z,21.32
2022-08-30T00:55:49.315Z,21.35
2022-08-30T00:58:27.678Z,21.38
2022-08-30T01:00:58.882Z,21.45
2022-08-30T01:03:28.026Z,21.46
2022-08-30T01:05:58.917Z,21.42
2022-08-30T01:08:27.396Z,21.42
2022-08-30T01:10:57.774Z,21.41
2022-08-30T01:13:28.197Z,21.40
2022-08-30T01:15:56.897Z,21.31
2022-08-30T01:18:25.761Z,21.34
2022-08-30T01:21:07.570Z,21.35
2022-08-30T01:23:40.508Z,21.08
2022-08-30T01:26:08.631Z,20.86
2022-08-30T01:28:39.215Z,20.78
2022-08-30T01:31:08.723Z,20.82
2022-08-30T01:33:38.532Z,20.88
2022-08-30T01:36:13.256Z,21.02
2022-08-30T01:38:48.403Z,21.09
2022-08-30T01:41:25.593Z,20.97
2022-08-30T01:43:57.683Z,20.96
2022-08-30T01:46:31.495Z,20.95
2022-08-30T01:48:59.449Z,20.79
2022-08-30T01:51:29.463Z,20.70
2022-08-30T01:53:58.688Z,20.92
2022-08-30T01:56:29.267Z,21.16
2022-08-30T01:59:02.535Z,21.23
2022-08-30T02:01:34.251Z,21.35
2022-08-30T02:04:02.925Z,21.39
2022-08-30T02:06:31.001Z,21.43
2022-08-30T02:08:59.940Z,21.42
2022-08-30T02:11:27.806Z,21.31
2022-08-30T02:13:55.752Z,21.19
2022-08-30T02:16:25.492Z,21.24
2022-08-30T02:18:55.345Z,21.27
2022-08-30T02:21:24.645Z,21.23
2022-08-30T02:23:53.622Z,21.17
2022-08-30T02:26:22.814Z,21.13
2022-08-30T02:28:52.461Z,21.07
2022-08-30T02:31:22.606Z,21.03
2022-08-30T02:33:53.159Z,20.90
2022-08-30T02:36:22.259Z,20.68
2022-08-30T02:38:51.500Z,20.57
2022-08-30T02:41:20.708Z,20.66
2022-08-30T02:43:48.802Z,20.67
2022-08-30T02:46:18.436Z,20.52
2022-08-30T02:48:46.424Z,20.48
2022-08-30T02:51:15.352Z,20.41
2022-08-30T02:53:45.912Z,20.40
2022-08-30T02:56:15.060Z,20.48
2022-08-30T02:58:45.015Z,20.43
2022-08-30T03:01:15.936Z,20.47
2022-08-30T03:03:47.287Z,20.63
2022-08-30T03:06:15.427Z,20.74
2022-08-30T03:08:43.356Z,20.74
2022-08-30T03:11:12.267Z,20.76
2022-08-30T03:13:40.054Z,20.74
2022-08-30T03:16:08.106Z,20.63
2022-08-30T03:18:35.996Z,20.40
2022-08-30T03:21:10.531Z,20.36
2022-08-30T03:23:38.582Z,20.49
2022-08-30T03:26:08.584Z,20.54
2022-08-30T03:28:36.470Z,20.42
2022-08-30T03:31:05.905Z,20.20
2022-08-30T03:33:33.767Z,19.98
2022-08-30T03:36:01.659Z,19.71
2022-08-30T03:38:29.484Z,19.60
2022-08-30T03:40:57.337Z,19.47
2022-08-30T03:43:26.205Z,19.29
2022-08-30T03:45:54.201Z,19.31
2022-08-30T03:48:22.036Z,19.40
2022-08-30T03:50:49.887Z,19.32
2022-08-30T03:53:17.842Z,19.36
2022-08-30T03:55:46.073Z,19.42
2022-08-30T03:58:14.981Z,19.28
2022-08-30T04:00:47.484Z,19.16
2022-08-30T04:03:15.565Z,19.19
2022-08-30T04:05:45.532Z,19.15
2022-08-30T04:08:13.270Z,18.99
2022-08-30T04:10:41.784Z,18.98
2022-08-30T04:13:09.855Z,18.89
2022-08-30T04:15:37.720Z,18.95
2022-08-30T04:18:05.599Z,19.17
2022-08-30T04:20:34.276Z,19.09
2022-08-30T04:23:02.700Z,18.96
2022-08-30T04:25:30.640Z,19.06
2022-08-30T04:27:58.499Z,19.12
2022-08-30T04:30:26.519Z,19.35
2022-08-30T04:32:58.497Z,19.42
2022-08-30T04:35:27.368Z,19.56
2022-08-30T04:37:55.238Z,19.62
2022-08-30T04:40:23.412Z,19.76
2022-08-30T04:42:54.482Z,19.85
2022-08-30T04:45:22.962Z,20.07
2022-08-30T04:47:50.899Z,20.28
2022-08-30T04:50:20.966Z,20.34
2022-08-30T04:52:49.055Z,20.33
2022-08-30T04:55:20.173Z,20.15
2022-08-30T04:57:48.972Z,20.09
2022-08-30T05:00:17.973Z,20.43
2022-08-30T05:02:46.550Z,20.62
2022-08-30T05:05:33.726Z,20.50
2022-08-30T05:08:02.415Z,20.51
2022-08-30T05:10:30.442Z,20.52
2022-08-30T05:12:58.206Z,20.41
2022-08-30T05:15:26.169Z,20.34
2022-08-30T05:17:54.003Z,20.28
2022-08-30T05:20:21.956Z,20.25
2022-08-30T05:22:53.643Z,20.16
2022-08-30T05:25:29.900Z,20.12
2022-08-30T05:27:57.877Z,20.23
2022-08-30T05:30:28.174Z,20.23
2022-08-30T05:32:55.980Z,20.10
2022-08-30T05:35:25.917Z,20.12
2022-08-30T05:37:55.250Z,20.15
2022-08-30T05:40:23.739Z,20.28
2022-08-30T05:42:52.776Z,20.39
2022-08-30T05:45:20.681Z,20.48
2022-08-30T05:47:48.800Z,20.63
2022-08-30T05:50:16.803Z,20.66
2022-08-30T05:52:45.390Z,20.47
2022-08-30T05:55:14.914Z,20.29
2022-08-30T05:57:42.726Z,20.16
2022-08-30T06:00:18.335Z,20.10
2022-08-30T06:02:46.357Z,20.04
2022-08-30T06:05:16.650Z,20.01
2022-08-30T06:07:44.471Z,20.06
2022-08-30T06:10:12.645Z,20.37
2022-08-30T06:12:41.583Z,20.75
2022-08-30T06:15:10.128Z,20.95
2022-08-30T06:17:39.868Z,21.20
2022-08-30T06:20:09.185Z,21.27
2022-08-30T06:22:38.885Z,20.74
2022-08-30T06:25:07.784Z,20.16
2022-08-30T06:27:35.560Z,19.76
2022-08-30T06:30:08.693Z,20.51
2022-08-30T06:32:38.797Z,21.35
2022-08-30T06:35:08.678Z,21.32
2022-08-30T06:37:36.584Z,20.63
2022-08-30T06:40:05.397Z,20.01
2022-08-30T06:42:34.269Z,19.97
2022-08-30T06:45:10.432Z,20.64
2022-08-30T06:47:42.004Z,21.37
2022-08-30T06:50:17.590Z,21.39
2022-08-30T06:52:46.303Z,20.73
2022-08-30T06:55:17.130Z,20.21
2022-08-30T06:57:46.089Z,20.33
2022-08-30T07:00:17.259Z,20.63
2022-08-30T07:02:45.304Z,20.83
2022-08-30T07:05:18.490Z,21.04
2022-08-30T07:07:46.645Z,21.09
2022-08-30T07:10:16.674Z,21.18
2022-08-30T07:12:44.503Z,21.30
2022-08-30T07:15:14.044Z,21.41
2022-08-30T07:18:00.802Z,21.45
2022-08-30T07:20:39.837Z,20.82
2022-08-30T07:23:10.149Z,20.15
2022-08-30T07:25:40.481Z,19.90
2022-08-30T07:28:10.847Z,20.33
2022-08-30T07:30:41.884Z,20.86
2022-08-30T07:33:09.910Z,21.35
2022-08-30T07:35:37.885Z,21.29
2022-08-30T07:38:06.069Z,20.62
2022-08-30T07:40:34.040Z,20.03
2022-08-30T07:43:02.490Z,20.16
2022-08-30T07:45:30.322Z,20.36
2022-08-30T07:47:59.532Z,20.54
2022-08-30T07:50:27.748Z,20.70
2022-08-30T07:52:56.086Z,20.89
2022-08-30T07:55:24.160Z,20.89
2022-08-30T07:57:51.974Z,20.78
2022-08-30T08:00:23.190Z,20.80
2022-08-30T08:02:54.469Z,20.68
2022-08-30T08:05:25.083Z,20.49
2022-08-30T08:07:53.824Z,20.58
2022-08-30T08:10:21.808Z,20.83
2022-08-30T08:12:49.866Z,20.90
2022-08-30T08:15:20.587Z,20.90
2022-08-30T08:17:48.437Z,20.97
2022-08-30T08:20:16.434Z,21.03
2022-08-30T08:22:44.205Z,20.98
2022-08-30T08:25:14.348Z,21.01
2022-08-30T08:27:53.782Z,21.17
2022-08-30T08:30:28.449Z,21.10
2022-08-30T08:33:05.446Z,21.14
2022-08-30T08:35:39.388Z,21.14
2022-08-30T08:38:13.779Z,21.07
2022-08-30T08:40:54.774Z,20.97
2022-08-30T08:43:26.873Z,20.73
2022-08-30T08:46:08.061Z,20.78
2022-08-30T08:49:00.079Z,20.86
2022-08-30T08:51:55.637Z,20.81
2022-08-30T08:54:44.646Z,20.61
2022-08-30T08:57:15.742Z,20.39
2022-08-30T08:59:46.886Z,20.39
2022-08-30T09:02:29.987Z,20.36
2022-08-30T09:05:03.493Z,20.28
2022-08-30T09:07:41.082Z,20.14
2022-08-30T09:10:09.233Z,20.07
2022-08-30T09:12:37.280Z,19.88
2022-08-30T09:15:30.047Z,19.87
2022-08-30T09:18:04.281Z,19.99
2022-08-30T09:20:41.715Z,20.04
2022-08-30T09:23:16.037Z,19.99
2022-08-30T09:26:00.703Z,20.11
2022-08-30T09:28:33.923Z,20.30
2022-08-30T09:31:12.409Z,20.47
2022-08-30T09:33:40.883Z,20.48
2022-08-30T09:36:28.064Z,20.28
2022-08-30T09:39:07.837Z,20.36
2022-08-30T09:41:48.548Z,20.58
2022-08-30T09:44:30.880Z,20.70
2022-08-30T09:47:01.890Z,20.90
2022-08-30T09:49:34.623Z,21.07
2022-08-30T09:52:38.972Z,21.13
2022-08-30T09:55:38.382Z,21.20
2022-08-30T09:58:18.558Z,21.23
2022-08-30T10:01:13.693Z,21.35
2022-08-30T10:04:30.484Z,21.35
2022-08-30T10:07:13.662Z,21.40
2022-08-30T10:09:52.923Z,21.42
2022-08-30T10:12:58.049Z,21.43
2022-08-30T10:15:42.384Z,21.40
2022-08-30T10:18:34.706Z,21.41
2022-08-30T10:21:26.304Z,21.34
2022-08-30T10:24:06.483Z,21.35
2022-08-30T10:26:50.412Z,21.49
2022-08-30T10:29:45.541Z,21.59
2022-08-30T10:32:32.170Z,21.54
2022-08-30T10:35:19.301Z,21.53
2022-08-30T10:37:58.817Z,21.78
2022-08-30T10:40:54.262Z,22.04
2022-08-30T10:43:53.920Z,22.23
2022-08-30T10:46:40.620Z,22.30
2022-08-30T10:49:19.866Z,22.14
2022-08-30T10:52:12.192Z,22.09
2022-08-30T10:55:16.030Z,22.24
2022-08-30T10:57:45.535Z,22.49
2022-08-30T11:00:39.392Z,22.58
2022-08-30T11:04:14.910Z,22.81
2022-08-30T11:07:26.920Z,23.14
2022-08-30T11:10:22.866Z,23.18
2022-08-30T11:13:18.508Z,22.79
2022-08-30T11:16:15.397Z,22.47
2022-08-30T11:18:52.604Z,22.26
2022-08-30T11:21:40.319Z,22.12
2022-08-30T11:24:16.717Z,21.95
2022-08-30T11:27:15.043Z,21.82
2022-08-30T11:29:53.753Z,22.30
2022-08-30T11:33:19.936Z,22.70
2022-08-30T11:35:52.688Z,22.42
2022-08-30T11:38:26.628Z,22.11
2022-08-30T11:40:54.322Z,21.87
2022-08-30T11:43:42.461Z,21.76
2022-08-30T11:46:27.142Z,21.71
2022-08-30T11:49:15.521Z,21.71
2022-08-30T11:55:07.000Z,21.61
2022-08-30T11:58:29.874Z,21.60
2022-08-30T12:01:50.363Z,21.63
2022-08-30T12:04:23.184Z,21.63
2022-08-30T12:07:05.711Z,21.52
2022-08-30T12:09:36.294Z,21.40
2022-08-30T12:12:37.027Z,21.39
2022-08-30T12:15:05.673Z,21.41
2022-08-30T12:18:16.021Z,21.40
2022-08-30T12:20:50.710Z,21.31
2022-08-30T12:23:51.745Z,21.14
2022-08-30T12:26:25.545Z,21.04
2022-08-30T12:29:16.445Z,21.04
2022-08-30T12:32:15.093Z,21.05
2022-08-30T12:34:43.617Z,21.07
2022-08-30T12:37:29.050Z,21.12
2022-08-30T12:40:21.961Z,21.24
2022-08-30T12:43:01.313Z,21.32
2022-08-30T12:45:46.938Z,21.36
2022-08-30T12:48:20.897Z,21.35
2022-08-30T12:50:53.909Z,21.34
2022-08-30T12:53:37.177Z,21.31
2022-08-30T12:56:10.503Z,21.33
2022-08-30T12:58:52.369Z,21.42
2022-08-30T13:01:33.227Z,21.57
2022-08-30T13:04:21.480Z,21.69
2022-08-30T13:06:59.800Z,21.70
2022-08-30T13:09:40.255Z,21.63
2022-08-30T13:12:22.247Z,21.49
2022-08-30T13:14:52.499Z,21.23
2022-08-30T13:17:26.857Z,20.98
2022-08-30T13:20:17.674Z,20.79
2022-08-30T13:23:10.277Z,20.65
2022-08-30T13:25:40.164Z,20.56
2022-08-30T13:28:08.534Z,20.50
2022-08-30T13:30:39.404Z,20.48
2022-08-30T13:33:10.319Z,20.48
2022-08-30T13:35:38.252Z,20.54
2022-08-30T13:38:08.010Z,20.63
2022-08-30T13:40:36.084Z,20.72
2022-08-30T13:43:04.203Z,20.82
2022-08-30T13:45:47.329Z,20.95
2022-08-30T13:48:17.422Z,21.09
2022-08-30T13:50:53.838Z,21.15
2022-08-30T13:56:09.801Z,21.26
2022-08-30T13:58:42.162Z,21.29
2022-08-30T14:01:10.221Z,21.29
2022-08-30T14:04:13.260Z,21.20
2022-08-30T14:06:33.992Z,21.04
2022-08-30T14:09:06.799Z,20.96
2022-08-30T14:11:35.283Z,20.92
2022-08-30T14:14:32.411Z,20.92
2022-08-30T14:16:52.344Z,21.00
2022-08-30T14:19:21.296Z,21.03
2022-08-30T14:21:50.236Z,21.04
2022-08-30T14:24:21.422Z,20.99
2022-08-30T14:26:54.293Z,20.94
2022-08-30T14:29:30.076Z,20.93
2022-08-30T14:32:00.173Z,21.00
2022-08-30T14:34:28.898Z,21.04
2022-08-30T14:36:57.044Z,21.04
2022-08-30T14:39:26.905Z,21.06
2022-08-30T14:41:57.269Z,21.11
2022-08-30T14:44:26.337Z,21.16
2022-08-30T14:46:58.601Z,21.14
2022-08-30T14:49:28.611Z,21.07
2022-08-30T14:51:56.937Z,20.93
2022-08-30T14:54:29.048Z,20.73
2022-08-30T14:56:58.406Z,20.61
2022-08-30T14:59:27.058Z,20.59
2022-08-30T15:01:56.052Z,20.60
2022-08-30T15:04:24.234Z,20.59
2022-08-30T15:06:53.298Z,20.55
2022-08-30T15:09:25.372Z,20.51
2022-08-30T15:11:58.719Z,20.43
2022-08-30T15:14:28.988Z,20.36
2022-08-30T15:16:59.202Z,20.27
2022-08-30T15:19:30.598Z,20.15
2022-08-30T15:22:05.266Z,20.06
2022-08-30T15:24:34.929Z,20.06
2022-08-30T15:27:04.644Z,20.12
2022-08-30T15:29:34.089Z,20.19
2022-08-30T15:32:05.470Z,20.30
2022-08-30T15:34:34.616Z,20.37
2022-08-30T15:37:02.465Z,20.41
2022-08-30T15:39:31.936Z,20.47
2022-08-30T15:42:01.202Z,20.51
2022-08-30T15:44:31.752Z,20.52
2022-08-30T15:47:03.624Z,20.55
2022-08-30T15:49:31.800Z,20.54
2022-08-30T15:52:03.136Z,20.46
2022-08-30T15:54:32.444Z,20.30
2022-08-30T15:57:05.881Z,20.14
2022-08-30T15:59:33.892Z,19.97
2022-08-30T16:02:02.144Z,19.86
2022-08-30T16:04:31.179Z,19.78
2022-08-30T16:06:59.110Z,19.74
2022-08-30T16:09:32.344Z,19.73
2022-08-30T16:12:04.719Z,19.73
2022-08-30T16:14:34.720Z,19.75
2022-08-30T16:17:05.540Z,19.74
2022-08-30T16:19:34.697Z,19.75
2022-08-30T16:22:03.306Z,19.75
2022-08-30T16:24:31.199Z,19.75
2022-08-30T16:27:01.285Z,20.04
2022-08-30T16:29:29.357Z,21.60
2022-08-30T16:31:57.764Z,22.58
2022-08-30T16:34:25.915Z,22.22
2022-08-30T16:36:54.291Z,21.59
2022-08-30T16:39:22.871Z,21.05
2022-08-30T16:41:50.886Z,20.59
2022-08-30T16:44:18.972Z,20.23
2022-08-30T16:46:54.990Z,19.91
2022-08-30T16:49:25.435Z,19.83
2022-08-30T16:51:54.539Z,20.53
2022-08-30T16:54:23.176Z,21.21
2022-08-30T16:56:51.697Z,21.59
2022-08-30T16:59:19.806Z,21.38
2022-08-30T17:01:48.807Z,21.01
2022-08-30T17:04:19.584Z,20.75
2022-08-30T17:06:50.252Z,20.66
2022-08-30T17:09:20.237Z,20.65
2022-08-30T17:11:48.907Z,20.69
2022-08-30T17:14:22.957Z,21.29
2022-08-30T17:17:00.664Z,21.80
2022-08-30T17:19:29.970Z,21.42
2022-08-30T17:22:02.752Z,20.87
2022-08-30T17:24:30.782Z,20.37
2022-08-30T17:26:59.013Z,19.95
2022-08-30T17:29:29.121Z,19.89
2022-08-30T17:31:57.723Z,20.62
2022-08-30T17:34:27.937Z,21.12
2022-08-30T17:37:02.417Z,21.38
2022-08-30T17:39:31.705Z,21.39
2022-08-30T17:42:00.837Z,20.78
2022-08-30T17:44:32.715Z,20.10
2022-08-30T17:47:02.310Z,19.74
2022-08-30T17:49:35.077Z,20.16
2022-08-30T17:52:05.124Z,20.69
2022-08-30T17:54:34.975Z,21.09
2022-08-30T17:57:10.820Z,21.33
2022-08-30T17:59:40.741Z,21.28
2022-08-30T18:02:11.114Z,20.59
2022-08-30T18:04:42.101Z,19.85
2022-08-30T18:07:16.178Z,19.41
2022-08-30T18:09:45.019Z,19.80
2022-08-30T18:12:13.304Z,20.25
2022-08-30T18:14:42.515Z,20.49
2022-08-30T18:17:10.743Z,20.60
2022-08-30T18:19:46.162Z,20.62
2022-08-30T18:22:16.906Z,20.65
2022-08-30T18:24:45.639Z,20.71
2022-08-30T18:27:13.844Z,20.77
2022-08-30T18:29:41.757Z,20.50
2022-08-30T18:32:11.629Z,19.72
2022-08-30T18:34:42.348Z,19.13
2022-08-30T18:37:12.683Z,19.27
2022-08-30T18:39:42.693Z,19.55
2022-08-30T18:42:10.782Z,19.79
2022-08-30T18:44:43.533Z,19.99
2022-08-30T18:47:30.287Z,20.10
2022-08-30T18:49:58.248Z,20.09
2022-08-30T18:52:28.660Z,20.03
2022-08-30T18:54:57.478Z,20.08
2022-08-30T18:57:27.159Z,20.12
2022-08-30T18:59:56.484Z,20.12
2022-08-30T19:02:27.526Z,20.15
2022-08-30T19:04:59.123Z,20.12
2022-08-30T19:07:29.994Z,20.11
2022-08-30T19:10:05.824Z,20.11
2022-08-30T19:12:34.761Z,20.09
2022-08-30T19:15:10.909Z,20.01
2022-08-30T19:17:44.176Z,20.05
2022-08-30T19:20:19.680Z,20.18
2022-08-30T19:23:08.793Z,20.22
2022-08-30T19:25:41.190Z,20.28
2022-08-30T19:28:11.004Z,20.44
2022-08-30T19:30:39.886Z,20.59
2022-08-30T19:33:11.587Z,20.72
2022-08-30T19:35:40.023Z,20.75
2022-08-30T19:38:07.895Z,20.78
2022-08-30T19:40:35.672Z,20.75
2022-08-30T19:43:05.553Z,20.09
2022-08-30T19:45:34.675Z,19.25
2022-08-30T19:48:02.835Z,18.73
2022-08-30T19:50:31.202Z,18.95
2022-08-30T19:52:59.524Z,19.28
2022-08-30T19:55:31.420Z,19.53
2022-08-30T19:57:59.767Z,19.65
2022-08-30T20:00:30.702Z,19.65
2022-08-30T20:03:01.474Z,19.65
2022-08-30T20:05:32.810Z,19.70
2022-08-30T20:08:00.827Z,19.75
2022-08-30T20:10:29.476Z,19.73
2022-08-30T20:12:57.543Z,19.79
2022-08-30T20:15:26.451Z,19.93
2022-08-30T20:18:06.284Z,20.19
2022-08-30T20:20:42.376Z,20.27
2022-08-30T20:23:21.628Z,20.22
2022-08-30T20:25:55.697Z,20.18
2022-08-30T20:28:25.246Z,20.07
2022-08-30T20:30:56.497Z,19.91
2022-08-30T20:33:25.798Z,19.82
2022-08-30T20:35:53.662Z,19.83
2022-08-30T20:38:21.836Z,19.86
2022-08-30T20:40:54.714Z,19.82
2022-08-30T20:43:26.390Z,19.82
2022-08-30T20:45:55.638Z,19.82
2022-08-30T20:48:26.248Z,19.82
2022-08-30T20:50:54.914Z,19.81
2022-08-30T20:53:22.711Z,19.92
2022-08-30T20:55:50.467Z,20.12
2022-08-30T20:58:18.425Z,20.16
2022-08-30T21:00:51.924Z,20.11
2022-08-30T21:03:27.283Z,20.06
2022-08-30T21:05:56.989Z,20.03
2022-08-30T21:08:25.710Z,20.06
2022-08-30T21:10:55.608Z,20.11
2022-08-30T21:13:23.682Z,20.01
2022-08-30T21:16:00.439Z,19.95
2022-08-30T21:18:34.334Z,19.92
2022-08-30T21:21:21.267Z,19.75
2022-08-30T21:23:50.241Z,19.92
2022-08-30T21:26:20.038Z,19.92
2022-08-30T21:28:53.764Z,19.69
2022-08-30T21:31:25.865Z,19.50
2022-08-30T21:33:55.515Z,19.42
2022-08-30T21:36:45.811Z,19.51
2022-08-30T21:39:24.970Z,19.41
2022-08-30T21:41:57.156Z,19.31
2022-08-30T21:44:27.200Z,19.20
2022-08-30T21:46:55.208Z,19.12
2022-08-30T21:49:24.861Z,19.29
2022-08-30T21:51:55.517Z,19.58
2022-08-30T21:54:25.280Z,19.76
2022-08-30T21:57:02.566Z,19.86
2022-08-30T21:59:31.540Z,19.89
2022-08-30T22:01:59.693Z,19.95
2022-08-30T22:04:28.063Z,19.94
2022-08-30T22:06:56.410Z,19.95
2022-08-30T22:09:25.621Z,19.99
2022-08-30T22:11:55.559Z,20.02
2022-08-30T22:14:24.603Z,19.99
2022-08-30T22:16:54.697Z,20.01
2022-08-30T22:19:23.635Z,20.16
2022-08-30T22:21:53.878Z,20.35
2022-08-30T22:24:32.668Z,20.44
2022-08-30T22:27:02.717Z,20.49
2022-08-30T22:29:30.845Z,20.60
2022-08-30T22:31:59.777Z,20.68
2022-08-30T22:34:28.190Z,20.72
2022-08-30T22:36:56.175Z,20.72
2022-08-30T22:39:24.099Z,20.68
2022-08-30T22:41:52.115Z,20.05
2022-08-30T22:44:20.052Z,19.24
2022-08-30T22:46:47.956Z,18.71
2022-08-30T22:49:15.761Z,19.02
2022-08-30T22:51:44.119Z,19.48
2022-08-30T22:54:12.114Z,19.81
2022-08-30T22:56:40.533Z,20.03
2022-08-30T22:59:08.951Z,20.18
2022-08-30T23:01:43.227Z,20.28
2022-08-30T23:04:13.071Z,20.33
2022-08-30T23:06:41.882Z,20.38
2022-08-30T23:09:18.188Z,20.39
2022-08-30T23:11:46.354Z,20.39
2022-08-30T23:14:14.837Z,20.31
2022-08-30T23:16:42.723Z,20.17
2022-08-30T23:19:10.505Z,20.15
2022-08-30T23:21:38.360Z,20.16
2022-08-30T23:24:25.285Z,20.21
2022-08-30T23:27:11.555Z,20.26
2022-08-30T23:30:00.455Z,20.24
2022-08-30T23:32:46.837Z,20.09
2022-08-30T23:35:33.291Z,20.02
2022-08-30T23:38:24.623Z,20.07
2022-08-30T23:41:11.486Z,20.14
2022-08-30T23:43:57.972Z,20.24
2022-08-30T23:46:44.425Z,20.31
2022-08-30T23:49:31.231Z,20.26
2022-08-30T23:52:17.790Z,20.26
2022-08-30T23:55:04.699Z,20.31
2022-08-30T23:57:51.779Z,20.22
